sensor_id;sensor_type;location;lat;lon;timestamp;pressure;altitude;pressure_sealevel;temperature;humidity
78123;BME280;67376;44.802;10.332;2024-02-26T00:00:29;100218.84;;;20.15;47.52
78123;BME280;67376;44.802;10.332;2024-02-26T00:02:55;100205.28;;;20.15;47.17
78123;BME280;67376;44.802;10.332;2024-02-26T00:05:21;100203.66;;;20.14;47.41
78123;BME280;67376;44.802;10.332;2024-02-26T00:07:46;100206.34;;;20.14;47.00
78123;BME280;67376;44.802;10.332;2024-02-26T00:10:13;100201.75;;;20.15;47.20
78123;BME280;67376;44.802;10.332;2024-02-26T00:12:39;100205.53;;;20.14;46.98
78123;BME280;67376;44.802;10.332;2024-02-26T00:15:08;100196.34;;;20.15;46.94
78123;BME280;67376;44.802;10.332;2024-02-26T00:17:34;100180.06;;;20.15;46.63
78123;BME280;67376;44.802;10.332;2024-02-26T00:20:03;100177.59;;;20.13;47.37
78123;BME280;67376;44.802;10.332;2024-02-26T00:22:33;100187.38;;;20.14;47.47
78123;BME280;67376;44.802;10.332;2024-02-26T00:24:58;100175.97;;;20.12;47.13
78123;BME280;67376;44.802;10.332;2024-02-26T00:27:24;100179.50;;;20.13;47.61
78123;BME280;67376;44.802;10.332;2024-02-26T00:29:49;100190.34;;;20.13;46.80
78123;BME280;67376;44.802;10.332;2024-02-26T00:32:14;100189.28;;;20.14;47.57
78123;BME280;67376;44.802;10.332;2024-02-26T00:34:40;100191.16;;;20.13;47.66
78123;BME280;67376;44.802;10.332;2024-02-26T00:37:05;100179.50;;;20.13;46.90
78123;BME280;67376;44.802;10.332;2024-02-26T00:39:31;100170.53;;;20.12;47.32
78123;BME280;67376;44.802;10.332;2024-02-26T00:41:56;100172.44;;;20.11;46.90
78123;BME280;67376;44.802;10.332;2024-02-26T00:44:22;100175.97;;;20.12;47.60
78123;BME280;67376;44.802;10.332;2024-02-26T00:46:47;100174.06;;;20.13;47.55
78123;BME280;67376;44.802;10.332;2024-02-26T00:49:12;100168.91;;;20.11;47.13
78123;BME280;67376;44.802;10.332;2024-02-26T00:51:38;100160.78;;;20.11;47.53
78123;BME280;67376;44.802;10.332;2024-02-26T00:54:03;100158.31;;;20.09;47.08
78123;BME280;67376;44.802;10.332;2024-02-26T00:56:29;100164.56;;;20.10;47.76
78123;BME280;67376;44.802;10.332;2024-02-26T00:58:54;100169.16;;;20.09;47.65
78123;BME280;67376;44.802;10.332;2024-02-26T01:01:19;100161.03;;;20.09;47.88
78123;BME280;67376;44.802;10.332;2024-02-26T01:03:45;100156.66;;;20.08;46.82
78123;BME280;67376;44.802;10.332;2024-02-26T01:06:10;100147.72;;;20.08;46.92
78123;BME280;67376;44.802;10.332;2024-02-26T01:08:36;100145.84;;;20.08;47.31
78123;BME280;67376;44.802;10.332;2024-02-26T01:11:03;100144.19;;;20.07;47.11
78123;BME280;67376;44.802;10.332;2024-02-26T01:13:28;100146.66;;;20.09;46.81
78123;BME280;67376;44.802;10.332;2024-02-26T01:15:54;100145.84;;;20.08;47.41
78123;BME280;67376;44.802;10.332;2024-02-26T01:18:19;100134.16;;;20.08;46.84
78123;BME280;67376;44.802;10.332;2024-02-26T01:20:44;100137.69;;;20.08;47.16
78123;BME280;67376;44.802;10.332;2024-02-26T01:23:10;100135.00;;;20.08;46.83
78123;BME280;67376;44.802;10.332;2024-02-26T01:25:35;100133.34;;;20.07;47.02
78123;BME280;67376;44.802;10.332;2024-02-26T01:28:02;100131.47;;;20.08;47.10
78123;BME280;67376;44.802;10.332;2024-02-26T01:30:28;100121.69;;;20.07;47.16
78123;BME280;67376;44.802;10.332;2024-02-26T01:32:53;100126.28;;;20.06;47.57
78123;BME280;67376;44.802;10.332;2024-02-26T01:35:19;100118.16;;;20.06;47.66
78123;BME280;67376;44.802;10.332;2024-02-26T01:37:45;100110.28;;;20.05;47.47
78123;BME280;67376;44.802;10.332;2024-02-26T01:40:10;100112.16;;;20.04;47.39
78123;BME280;67376;44.802;10.332;2024-02-26T01:42:38;100118.41;;;20.05;47.37
78123;BME280;67376;44.802;10.332;2024-02-26T01:45:05;100109.47;;;20.04;47.14
78123;BME280;67376;44.802;10.332;2024-02-26T01:47:32;100119.22;;;20.05;47.14
78123;BME280;67376;44.802;10.332;2024-02-26T01:49:57;100110.28;;;20.05;46.81
78123;BME280;67376;44.802;10.332;2024-02-26T01:52:23;100117.59;;;20.04;47.27
78123;BME280;67376;44.802;10.332;2024-02-26T01:54:49;100107.81;;;20.03;47.08
78123;BME280;67376;44.802;10.332;2024-02-26T01:57:15;100116.75;;;20.04;46.83
78123;BME280;67376;44.802;10.332;2024-02-26T01:59:41;100107.81;;;20.03;47.80
78123;BME280;67376;44.802;10.332;2024-02-26T02:02:08;100107.00;;;20.03;47.01
78123;BME280;67376;44.802;10.332;2024-02-26T02:04:36;100106.19;;;20.02;47.02
78123;BME280;67376;44.802;10.332;2024-02-26T02:07:02;100096.97;;;20.03;47.30
78123;BME280;67376;44.802;10.332;2024-02-26T02:09:28;100094.50;;;20.02;47.35
78123;BME280;67376;44.802;10.332;2024-02-26T02:11:53;100092.63;;;20.02;47.49
78123;BME280;67376;44.802;10.332;2024-02-26T02:14:19;100092.06;;;20.00;47.01
78123;BME280;67376;44.802;10.332;2024-02-26T02:16:44;100096.41;;;20.01;46.91
78123;BME280;67376;44.802;10.332;2024-02-26T02:19:10;100092.88;;;20.01;47.03
78123;BME280;67376;44.802;10.332;2024-02-26T02:21:35;100098.28;;;20.01;47.11
78123;BME280;67376;44.802;10.332;2024-02-26T02:24:00;100090.16;;;20.01;47.42
78123;BME280;67376;44.802;10.332;2024-02-26T02:26:26;100091.22;;;20.00;47.13
78123;BME280;67376;44.802;10.332;2024-02-26T02:28:52;100103.72;;;20.01;47.04
78123;BME280;67376;44.802;10.332;2024-02-26T02:31:18;100094.75;;;20.00;47.45
78123;BME280;67376;44.802;10.332;2024-02-26T02:33:44;100093.13;;;19.99;46.81
78123;BME280;67376;44.802;10.332;2024-02-26T02:36:09;100093.13;;;19.99;47.07
78123;BME280;67376;44.802;10.332;2024-02-26T02:38:48;100094.19;;;19.98;46.81
78123;BME280;67376;44.802;10.332;2024-02-26T02:41:17;100088.78;;;19.98;47.10
78123;BME280;67376;44.802;10.332;2024-02-26T02:43:43;100089.59;;;19.99;47.50
78123;BME280;67376;44.802;10.332;2024-02-26T02:46:08;100088.78;;;19.98;47.25
78123;BME280;67376;44.802;10.332;2024-02-26T02:48:33;100079.00;;;19.97;47.30
78123;BME280;67376;44.802;10.332;2024-02-26T02:50:59;100088.19;;;19.96;47.56
78123;BME280;67376;44.802;10.332;2024-02-26T02:53:24;100084.66;;;19.96;46.97
78123;BME280;67376;44.802;10.332;2024-02-26T02:55:50;100092.81;;;19.96;47.04
78123;BME280;67376;44.802;10.332;2024-02-26T02:58:15;100088.44;;;19.95;47.31
78123;BME280;67376;44.802;10.332;2024-02-26T03:00:41;100079.50;;;19.94;46.99
78123;BME280;67376;44.802;10.332;2024-02-26T03:03:06;100072.19;;;19.95;47.57
78123;BME280;67376;44.802;10.332;2024-02-26T03:05:32;100077.59;;;19.95;47.60
78123;BME280;67376;44.802;10.332;2024-02-26T03:07:57;100078.69;;;19.94;47.13
78123;BME280;67376;44.802;10.332;2024-02-26T03:10:23;100082.22;;;19.94;46.81
78123;BME280;67376;44.802;10.332;2024-02-26T03:12:49;100089.53;;;19.94;47.15
78123;BME280;67376;44.802;10.332;2024-02-26T03:15:14;100078.69;;;19.94;46.76
78123;BME280;67376;44.802;10.332;2024-02-26T03:17:40;100061.59;;;19.93;46.65
78123;BME280;67376;44.802;10.332;2024-02-26T03:20:06;100042.63;;;19.93;46.83
78123;BME280;67376;44.802;10.332;2024-02-26T03:22:33;100040.75;;;19.94;47.61
78123;BME280;67376;44.802;10.332;2024-02-26T03:24:59;100034.75;;;19.92;46.79
78123;BME280;67376;44.802;10.332;2024-02-26T03:27:24;100046.41;;;19.92;47.36
78123;BME280;67376;44.802;10.332;2024-02-26T03:29:49;100051.84;;;19.92;46.74
78123;BME280;67376;44.802;10.332;2024-02-26T03:32:15;100043.72;;;19.92;47.53
78123;BME280;67376;44.802;10.332;2024-02-26T03:34:40;100040.19;;;19.92;46.86
78123;BME280;67376;44.802;10.332;2024-02-26T03:37:06;100033.94;;;19.91;46.86
78123;BME280;67376;44.802;10.332;2024-02-26T03:39:32;100030.41;;;19.91;46.67
78123;BME280;67376;44.802;10.332;2024-02-26T03:41:58;100032.31;;;19.90;47.45
78123;BME280;67376;44.802;10.332;2024-02-26T03:44:23;100030.66;;;19.89;47.03
78123;BME280;67376;44.802;10.332;2024-02-26T03:46:49;100023.59;;;19.88;47.50
78123;BME280;67376;44.802;10.332;2024-02-26T03:49:14;100028.19;;;19.88;47.08
78123;BME280;67376;44.802;10.332;2024-02-26T03:51:39;100031.72;;;19.88;47.45
78123;BME280;67376;44.802;10.332;2024-02-26T03:54:05;100039.03;;;19.88;47.57
78123;BME280;67376;44.802;10.332;2024-02-26T03:56:30;100042.56;;;19.88;47.60
78123;BME280;67376;44.802;10.332;2024-02-26T03:58:55;100034.44;;;19.88;47.05
78123;BME280;67376;44.802;10.332;2024-02-26T04:01:21;100049.88;;;19.88;46.93
78123;BME280;67376;44.802;10.332;2024-02-26T04:03:47;100052.59;;;19.88;46.66
78123;BME280;67376;44.802;10.332;2024-02-26T04:06:12;100060.13;;;19.86;47.39
78123;BME280;67376;44.802;10.332;2024-02-26T04:08:41;100062.84;;;19.86;46.97
78123;BME280;67376;44.802;10.332;2024-02-26T04:11:06;100076.41;;;19.86;46.71
78123;BME280;67376;44.802;10.332;2024-02-26T04:13:36;100084.53;;;19.86;46.60
78123;BME280;67376;44.802;10.332;2024-02-26T04:16:05;100066.38;;;19.86;46.62
78123;BME280;67376;44.802;10.332;2024-02-26T04:18:31;100053.91;;;19.85;47.52
78123;BME280;67376;44.802;10.332;2024-02-26T04:20:57;100066.63;;;19.85;47.16
78123;BME280;67376;44.802;10.332;2024-02-26T04:23:23;100071.22;;;19.84;46.68
78123;BME280;67376;44.802;10.332;2024-02-26T04:25:48;100078.53;;;19.84;46.49
78123;BME280;67376;44.802;10.332;2024-02-26T04:28:13;100068.50;;;19.84;46.88
78123;BME280;67376;44.802;10.332;2024-02-26T04:30:39;100082.88;;;19.85;46.92
78123;BME280;67376;44.802;10.332;2024-02-26T04:33:04;100076.63;;;19.84;47.13
78123;BME280;67376;44.802;10.332;2024-02-26T04:35:30;100066.06;;;19.83;47.42
78123;BME280;67376;44.802;10.332;2024-02-26T04:37:56;100075.00;;;19.83;47.39
78123;BME280;67376;44.802;10.332;2024-02-26T04:40:21;100066.06;;;19.83;47.40
78123;BME280;67376;44.802;10.332;2024-02-26T04:42:46;100062.53;;;19.82;47.11
78123;BME280;67376;44.802;10.332;2024-02-26T04:45:12;100062.78;;;19.81;46.64
78123;BME280;67376;44.802;10.332;2024-02-26T04:47:38;100058.41;;;19.79;47.20
78123;BME280;67376;44.802;10.332;2024-02-26T04:50:03;100048.66;;;19.78;47.40
78123;BME280;67376;44.802;10.332;2024-02-26T04:52:29;100061.94;;;19.80;47.50
78123;BME280;67376;44.802;10.332;2024-02-26T04:54:54;100051.38;;;19.78;46.84
78123;BME280;67376;44.802;10.332;2024-02-26T04:57:21;100045.94;;;19.78;47.01
78123;BME280;67376;44.802;10.332;2024-02-26T04:59:47;100046.75;;;19.79;47.29
78123;BME280;67376;44.802;10.332;2024-02-26T05:02:13;100046.75;;;19.79;46.57
78123;BME280;67376;44.802;10.332;2024-02-26T05:04:38;100043.25;;;19.78;47.29
78123;BME280;67376;44.802;10.332;2024-02-26T05:07:04;100039.72;;;19.78;47.19
78123;BME280;67376;44.802;10.332;2024-02-26T05:09:29;100042.41;;;19.78;47.10
78123;BME280;67376;44.802;10.332;2024-02-26T05:11:54;100054.06;;;19.78;46.51
78123;BME280;67376;44.802;10.332;2024-02-26T05:14:20;100053.25;;;19.78;47.05
78123;BME280;67376;44.802;10.332;2024-02-26T05:16:45;100052.44;;;19.77;47.35
78123;BME280;67376;44.802;10.332;2024-02-26T05:19:11;100061.38;;;19.78;46.51
78123;BME280;67376;44.802;10.332;2024-02-26T05:21:36;100065.97;;;19.77;47.05
78123;BME280;67376;44.802;10.332;2024-02-26T05:24:02;100070.56;;;19.77;46.86
78123;BME280;67376;44.802;10.332;2024-02-26T05:26:27;100061.63;;;19.76;47.36
78123;BME280;67376;44.802;10.332;2024-02-26T05:28:52;100060.81;;;19.76;47.25
78123;BME280;67376;44.802;10.332;2024-02-26T05:31:18;100068.09;;;19.75;46.47
78123;BME280;67376;44.802;10.332;2024-02-26T05:33:44;100070.81;;;19.75;47.32
78123;BME280;67376;44.802;10.332;2024-02-26T05:36:09;100063.75;;;19.74;46.86
78123;BME280;67376;44.802;10.332;2024-02-26T05:38:35;100071.63;;;19.76;47.16
78123;BME280;67376;44.802;10.332;2024-02-26T05:41:01;100078.94;;;19.75;46.72
78123;BME280;67376;44.802;10.332;2024-02-26T05:43:26;100088.97;;;19.75;46.58
78123;BME280;67376;44.802;10.332;2024-02-26T05:45:52;100084.34;;;19.75;46.97
78123;BME280;67376;44.802;10.332;2024-02-26T05:48:17;100075.41;;;19.75;46.44
78123;BME280;67376;44.802;10.332;2024-02-26T05:50:44;100083.53;;;19.75;46.47
78123;BME280;67376;44.802;10.332;2024-02-26T05:53:10;100087.31;;;19.74;46.94
78123;BME280;67376;44.802;10.332;2024-02-26T05:55:35;100093.56;;;19.74;46.56
78123;BME280;67376;44.802;10.332;2024-02-26T05:58:01;100089.22;;;19.73;46.96
78123;BME280;67376;44.802;10.332;2024-02-26T06:00:26;100075.66;;;19.73;46.22
78123;BME280;67376;44.802;10.332;2024-02-26T06:02:51;100088.97;;;19.75;46.31
78123;BME280;67376;44.802;10.332;2024-02-26T06:05:17;100084.34;;;19.75;46.43
78123;BME280;67376;44.802;10.332;2024-02-26T06:07:42;100085.44;;;19.74;46.80
78123;BME280;67376;44.802;10.332;2024-02-26T06:10:08;100092.50;;;19.75;46.33
78123;BME280;67376;44.802;10.332;2024-02-26T06:12:36;100101.44;;;19.76;46.89
78123;BME280;67376;44.802;10.332;2024-02-26T06:15:02;100100.38;;;19.77;46.98
78123;BME280;67376;44.802;10.332;2024-02-26T06:17:27;100090.59;;;19.76;47.13
78123;BME280;67376;44.802;10.332;2024-02-26T06:19:53;100093.88;;;19.78;47.43
78123;BME280;67376;44.802;10.332;2024-02-26T06:22:19;100095.53;;;19.79;47.00
78123;BME280;67376;44.802;10.332;2024-02-26T06:24:44;100099.06;;;19.79;46.84
78123;BME280;67376;44.802;10.332;2024-02-26T06:27:10;100099.06;;;19.79;47.37
78123;BME280;67376;44.802;10.332;2024-02-26T06:29:35;100101.75;;;19.79;46.66
78123;BME280;67376;44.802;10.332;2024-02-26T06:32:00;100092.81;;;19.79;46.96
78123;BME280;67376;44.802;10.332;2024-02-26T06:34:26;100103.41;;;19.81;46.61
78123;BME280;67376;44.802;10.332;2024-02-26T06:36:51;100101.50;;;19.81;47.51
78123;BME280;67376;44.802;10.332;2024-02-26T06:39:16;100100.69;;;19.81;46.73
78123;BME280;67376;44.802;10.332;2024-02-26T06:41:43;100101.44;;;19.76;45.66
78123;BME280;67376;44.802;10.332;2024-02-26T06:44:08;100091.00;;;19.68;44.94
78123;BME280;67376;44.802;10.332;2024-02-26T06:46:34;100095.72;;;19.56;44.29
78123;BME280;67376;44.802;10.332;2024-02-26T06:49:00;100101.19;;;19.44;43.91
78123;BME280;67376;44.802;10.332;2024-02-26T06:51:25;100100.25;;;19.38;43.61
78123;BME280;67376;44.802;10.332;2024-02-26T06:53:50;100083.13;;;19.33;44.10
78123;BME280;67376;44.802;10.332;2024-02-26T06:56:16;100084.75;;;19.34;45.38
78123;BME280;67376;44.802;10.332;2024-02-26T06:58:41;100084.03;;;19.38;45.73
78123;BME280;67376;44.802;10.332;2024-02-26T07:01:06;100082.47;;;19.42;45.74
78123;BME280;67376;44.802;10.332;2024-02-26T07:03:34;100077.97;;;19.48;45.14
78123;BME280;67376;44.802;10.332;2024-02-26T07:05:59;100066.66;;;19.51;45.77
78123;BME280;67376;44.802;10.332;2024-02-26T07:08:24;100072.66;;;19.53;45.11
78123;BME280;67376;44.802;10.332;2024-02-26T07:10:50;100069.72;;;19.55;44.91
78123;BME280;67376;44.802;10.332;2024-02-26T07:13:15;100068.16;;;19.59;45.71
78123;BME280;67376;44.802;10.332;2024-02-26T07:15:40;100076.03;;;19.60;45.24
78123;BME280;67376;44.802;10.332;2024-02-26T07:18:06;100072.25;;;19.61;45.11
78123;BME280;67376;44.802;10.332;2024-02-26T07:20:31;100077.66;;;19.61;45.05
78123;BME280;67376;44.802;10.332;2024-02-26T07:22:57;100079.84;;;19.64;45.05
78123;BME280;67376;44.802;10.332;2024-02-26T07:25:23;100082.31;;;19.66;45.23
78123;BME280;67376;44.802;10.332;2024-02-26T07:27:50;100085.03;;;19.66;45.61
78123;BME280;67376;44.802;10.332;2024-02-26T07:30:15;100085.59;;;19.68;45.00
78123;BME280;67376;44.802;10.332;2024-02-26T07:32:42;100079.09;;;19.69;45.53
78123;BME280;67376;44.802;10.332;2024-02-26T07:35:07;100076.41;;;19.69;45.47
78123;BME280;67376;44.802;10.332;2024-02-26T07:37:33;100074.50;;;19.69;45.08
78123;BME280;67376;44.802;10.332;2024-02-26T07:39:58;100078.03;;;19.70;45.50
78123;BME280;67376;44.802;10.332;2024-02-26T07:42:23;100066.16;;;19.71;45.65
78123;BME280;67376;44.802;10.332;2024-02-26T07:44:51;100066.97;;;19.71;45.78
78123;BME280;67376;44.802;10.332;2024-02-26T07:47:16;100066.97;;;19.71;45.84
78123;BME280;67376;44.802;10.332;2024-02-26T07:49:42;100061.31;;;19.73;45.37
78123;BME280;67376;44.802;10.332;2024-02-26T07:52:07;100058.59;;;19.73;44.98
78123;BME280;67376;44.802;10.332;2024-02-26T07:54:32;100062.94;;;19.74;44.86
78123;BME280;67376;44.802;10.332;2024-02-26T07:56:58;100056.69;;;19.73;45.72
78123;BME280;67376;44.802;10.332;2024-02-26T07:59:23;100063.75;;;19.74;45.43
78123;BME280;67376;44.802;10.332;2024-02-26T08:01:52;100059.41;;;19.73;45.17
78123;BME280;67376;44.802;10.332;2024-02-26T08:04:18;100058.34;;;19.74;45.68
78123;BME280;67376;44.802;10.332;2024-02-26T08:06:43;100057.53;;;19.74;45.20
78123;BME280;67376;44.802;10.332;2024-02-26T08:09:08;100064.59;;;19.75;45.11
78123;BME280;67376;44.802;10.332;2024-02-26T08:11:34;100049.16;;;19.75;45.01
78123;BME280;67376;44.802;10.332;2024-02-26T08:14:00;100063.50;;;19.76;44.62
78123;BME280;67376;44.802;10.332;2024-02-26T08:16:25;100057.28;;;19.75;44.97
78123;BME280;67376;44.802;10.332;2024-02-26T08:18:51;100054.56;;;19.75;44.70
78123;BME280;67376;44.802;10.332;2024-02-26T08:21:16;100056.47;;;19.75;45.57
78123;BME280;67376;44.802;10.332;2024-02-26T08:23:43;100062.69;;;19.75;45.57
78123;BME280;67376;44.802;10.332;2024-02-26T08:26:09;100063.75;;;19.74;45.21
78123;BME280;67376;44.802;10.332;2024-02-26T08:28:37;100057.28;;;19.75;44.68
78123;BME280;67376;44.802;10.332;2024-02-26T08:31:02;100066.22;;;19.76;44.71
78123;BME280;67376;44.802;10.332;2024-02-26T08:33:28;100078.94;;;19.75;44.57
78123;BME280;67376;44.802;10.332;2024-02-26T08:35:54;100081.66;;;19.75;44.92
78123;BME280;67376;44.802;10.332;2024-02-26T08:38:19;100083.28;;;19.76;44.60
78123;BME280;67376;44.802;10.332;2024-02-26T08:40:44;100079.75;;;19.76;44.69
78123;BME280;67376;44.802;10.332;2024-02-26T08:43:10;100076.00;;;19.77;44.82
78123;BME280;67376;44.802;10.332;2024-02-26T08:45:35;100070.81;;;19.75;44.85
78123;BME280;67376;44.802;10.332;2024-02-26T08:48:00;100072.47;;;19.76;44.66
78123;BME280;67376;44.802;10.332;2024-02-26T08:50:26;100068.94;;;19.76;44.48
78123;BME280;67376;44.802;10.332;2024-02-26T08:52:52;100060.81;;;19.76;44.48
78123;BME280;67376;44.802;10.332;2024-02-26T08:55:18;100058.91;;;19.76;44.50
78123;BME280;67376;44.802;10.332;2024-02-26T08:57:44;100052.69;;;19.76;44.76
78123;BME280;67376;44.802;10.332;2024-02-26T09:00:09;100047.25;;;19.76;44.28
78123;BME280;67376;44.802;10.332;2024-02-26T09:02:36;100044.31;;;19.77;45.09
78123;BME280;67376;44.802;10.332;2024-02-26T09:05:04;100038.31;;;19.75;45.14
78123;BME280;67376;44.802;10.332;2024-02-26T09:07:31;100037.50;;;19.75;44.05
78123;BME280;67376;44.802;10.332;2024-02-26T09:09:56;100037.50;;;19.75;44.29
78123;BME280;67376;44.802;10.332;2024-02-26T09:12:21;100038.31;;;19.75;44.68
78123;BME280;67376;44.802;10.332;2024-02-26T09:14:47;100040.22;;;19.75;44.55
78123;BME280;67376;44.802;10.332;2024-02-26T09:17:12;100038.31;;;19.75;44.17
78123;BME280;67376;44.802;10.332;2024-02-26T09:19:38;100037.50;;;19.75;44.17
78123;BME280;67376;44.802;10.332;2024-02-26T09:22:03;100040.22;;;19.75;44.18
78123;BME280;67376;44.802;10.332;2024-02-26T09:24:29;100033.72;;;19.76;44.24
78123;BME280;67376;44.802;10.332;2024-02-26T09:26:55;100032.91;;;19.75;44.06
78123;BME280;67376;44.802;10.332;2024-02-26T09:29:20;100028.31;;;19.76;44.63
78123;BME280;67376;44.802;10.332;2024-02-26T09:31:46;100026.66;;;19.75;44.86
78123;BME280;67376;44.802;10.332;2024-02-26T09:34:14;100032.06;;;19.75;44.86
78123;BME280;67376;44.802;10.332;2024-02-26T09:36:39;100015.81;;;19.75;43.93
78123;BME280;67376;44.802;10.332;2024-02-26T09:39:05;100029.38;;;19.75;44.18
78123;BME280;67376;44.802;10.332;2024-02-26T09:41:32;100018.78;;;19.73;44.22
78123;BME280;67376;44.802;10.332;2024-02-26T09:43:58;100025.84;;;19.74;44.38
78123;BME280;67376;44.802;10.332;2024-02-26T09:46:28;100031.25;;;19.74;44.39
78123;BME280;67376;44.802;10.332;2024-02-26T09:48:54;100023.13;;;19.74;44.10
78123;BME280;67376;44.802;10.332;2024-02-26T09:51:22;100023.94;;;19.75;44.56
78123;BME280;67376;44.802;10.332;2024-02-26T09:53:51;100015.00;;;19.74;44.06
78123;BME280;67376;44.802;10.332;2024-02-26T09:56:17;100003.34;;;19.74;44.19
78123;BME280;67376;44.802;10.332;2024-02-26T09:58:43;100008.78;;;19.74;44.34
78123;BME280;67376;44.802;10.332;2024-02-26T10:01:13;100011.72;;;19.72;43.60
78123;BME280;67376;44.802;10.332;2024-02-26T10:03:42;100010.41;;;19.75;43.67
78123;BME280;67376;44.802;10.332;2024-02-26T10:06:09;100023.13;;;19.74;44.47
78123;BME280;67376;44.802;10.332;2024-02-26T10:08:35;100022.31;;;19.74;43.45
78123;BME280;67376;44.802;10.332;2024-02-26T10:11:03;100015.81;;;19.75;43.76
78123;BME280;67376;44.802;10.332;2024-02-26T10:13:28;100028.81;;;19.73;43.89
78123;BME280;67376;44.802;10.332;2024-02-26T10:15:53;100028.81;;;19.73;43.88
78123;BME280;67376;44.802;10.332;2024-02-26T10:18:19;100035.84;;;19.74;43.40
78123;BME280;67376;44.802;10.332;2024-02-26T10:21:03;100032.31;;;19.73;44.03
78123;BME280;67376;44.802;10.332;2024-02-26T10:23:29;100034.22;;;19.73;44.40
78123;BME280;67376;44.802;10.332;2024-02-26T10:25:55;100030.44;;;19.74;43.96
78123;BME280;67376;44.802;10.332;2024-02-26T10:28:21;100024.19;;;19.73;43.70
78123;BME280;67376;44.802;10.332;2024-02-26T10:30:46;100032.31;;;19.73;44.23
78123;BME280;67376;44.802;10.332;2024-02-26T10:33:12;100026.91;;;19.73;43.83
78123;BME280;67376;44.802;10.332;2024-02-26T10:35:40;100026.91;;;19.73;44.27
78123;BME280;67376;44.802;10.332;2024-02-26T10:38:07;100030.44;;;19.74;44.11
78123;BME280;67376;44.802;10.332;2024-02-26T10:40:32;100027.97;;;19.72;43.92
78123;BME280;67376;44.802;10.332;2024-02-26T10:42:58;100021.75;;;19.72;43.78
78123;BME280;67376;44.802;10.332;2024-02-26T10:45:24;100035.84;;;19.74;43.23
78123;BME280;67376;44.802;10.332;2024-02-26T10:47:50;100033.16;;;19.74;44.11
78123;BME280;67376;44.802;10.332;2024-02-26T10:50:16;100028.56;;;19.74;43.79
78123;BME280;67376;44.802;10.332;2024-02-26T10:52:42;100027.72;;;19.74;43.70
78123;BME280;67376;44.802;10.332;2024-02-26T10:55:16;100025.03;;;19.74;43.45
78123;BME280;67376;44.802;10.332;2024-02-26T10:57:45;100015.00;;;19.74;43.17
78123;BME280;67376;44.802;10.332;2024-02-26T11:00:14;100016.91;;;19.74;43.33
78123;BME280;67376;44.802;10.332;2024-02-26T11:02:41;100007.69;;;19.75;43.25
78123;BME280;67376;44.802;10.332;2024-02-26T11:05:07;100003.34;;;19.74;43.65
78123;BME280;67376;44.802;10.332;2024-02-26T11:07:36;99997.94;;;19.74;43.84
78123;BME280;67376;44.802;10.332;2024-02-26T11:10:03;99992.53;;;19.74;43.76
78123;BME280;67376;44.802;10.332;2024-02-26T11:12:30;99992.53;;;19.74;43.15
78123;BME280;67376;44.802;10.332;2024-02-26T11:14:56;99987.94;;;19.74;43.15
78123;BME280;67376;44.802;10.332;2024-02-26T11:17:26;99983.31;;;19.75;43.59
78123;BME280;67376;44.802;10.332;2024-02-26T11:19:54;99984.41;;;19.74;43.40
78123;BME280;67376;44.802;10.332;2024-02-26T11:22:20;99979.56;;;19.76;43.69
78123;BME280;67376;44.802;10.332;2024-02-26T11:24:48;99983.06;;;19.76;43.00
78123;BME280;67376;44.802;10.332;2024-02-26T11:27:16;99974.94;;;19.76;43.44
78123;BME280;67376;44.802;10.332;2024-02-26T11:29:51;99969.53;;;19.76;43.81
78123;BME280;67376;44.802;10.332;2024-02-26T11:32:18;99968.72;;;19.76;42.94
78123;BME280;67376;44.802;10.332;2024-02-26T11:34:44;99967.66;;;19.77;43.20
78123;BME280;67376;44.802;10.332;2024-02-26T11:37:13;99977.66;;;19.76;43.18
78123;BME280;67376;44.802;10.332;2024-02-26T11:39:42;99969.53;;;19.76;43.40
78123;BME280;67376;44.802;10.332;2024-02-26T11:42:10;99957.06;;;19.75;42.89
78123;BME280;67376;44.802;10.332;2024-02-26T11:44:38;99955.41;;;19.74;42.72
78123;BME280;67376;44.802;10.332;2024-02-26T11:47:11;99948.38;;;19.73;42.84
78123;BME280;67376;44.802;10.332;2024-02-26T11:49:36;99953.22;;;19.71;41.73
78123;BME280;67376;44.802;10.332;2024-02-26T11:52:05;99952.31;;;19.66;41.87
78123;BME280;67376;44.802;10.332;2024-02-26T11:54:53;99943.66;;;19.64;42.24
78123;BME280;67376;44.802;10.332;2024-02-26T11:57:38;99934.72;;;19.63;42.68
78123;BME280;67376;44.802;10.332;2024-02-26T12:02:51;99926.59;;;19.63;42.32
78123;BME280;67376;44.802;10.332;2024-02-26T12:05:23;99913.56;;;19.60;41.77
78123;BME280;67376;44.802;10.332;2024-02-26T12:07:59;99910.03;;;19.60;42.29
78123;BME280;67376;44.802;10.332;2024-02-26T12:10:30;99899.19;;;19.60;42.40
78123;BME280;67376;44.802;10.332;2024-02-26T12:13:10;99893.78;;;19.60;44.33
78123;BME280;67376;44.802;10.332;2024-02-26T12:15:39;99897.63;;;19.64;48.11
78123;BME280;67376;44.802;10.332;2024-02-26T12:18:06;99895.72;;;19.64;49.41
78123;BME280;67376;44.802;10.332;2024-02-26T12:20:33;99887.03;;;19.62;49.96
78123;BME280;67376;44.802;10.332;2024-02-26T12:22:59;99892.72;;;19.61;50.00
78123;BME280;67376;44.802;10.332;2024-02-26T12:25:27;99881.06;;;19.60;48.96
78123;BME280;67376;44.802;10.332;2024-02-26T12:27:53;99884.59;;;19.61;47.26
78123;BME280;67376;44.802;10.332;2024-02-26T12:30:19;99885.16;;;19.63;47.14
78123;BME280;67376;44.802;10.332;2024-02-26T12:32:46;99885.16;;;19.63;46.46
78123;BME280;67376;44.802;10.332;2024-02-26T12:35:13;99868.91;;;19.63;46.06
78123;BME280;67376;44.802;10.332;2024-02-26T12:37:39;99864.81;;;19.60;45.33